createdAt,value
2018-08-09T00:00:05.433Z,24.20
2018-08-09T00:02:34.244Z,24.00
2018-08-09T00:05:02.921Z,23.90
2018-08-09T00:07:31.573Z,23.80
2018-08-09T00:10:00.473Z,23.80
2018-08-09T00:12:28.963Z,23.90
2018-08-09T00:14:57.425Z,24.00
2018-08-09T00:17:26.461Z,23.90
2018-08-09T00:19:54.920Z,23.70
2018-08-09T00:22:24.256Z,23.70
2018-08-09T00:24:52.794Z,23.70
2018-08-09T00:27:21.208Z,23.80
2018-08-09T00:29:49.624Z,23.90
2018-08-09T00:32:18.263Z,23.90
2018-08-09T00:34:47.354Z,23.90
2018-08-09T00:37:15.782Z,23.90
2018-08-09T00:39:44.209Z,23.80
2018-08-09T00:42:12.628Z,23.80
2018-08-09T00:44:41.293Z,23.80
2018-08-09T00:47:09.768Z,23.70
2018-08-09T00:49:38.170Z,23.60
2018-08-09T00:52:06.661Z,23.70
2018-08-09T00:54:35.264Z,23.60
2018-08-09T00:57:03.796Z,23.70
2018-08-09T00:59:32.264Z,23.70
2018-08-09T01:02:01.229Z,23.60
2018-08-09T01:04:30.580Z,23.50
2018-08-09T01:06:59.124Z,23.50
2018-08-09T01:09:27.532Z,23.40
2018-08-09T01:11:55.997Z,23.40
2018-08-09T01:14:24.509Z,23.40
2018-08-09T01:16:53.084Z,23.40
2018-08-09T01:19:22.126Z,23.50
2018-08-09T01:21:50.679Z,23.40
2018-08-09T01:24:19.065Z,23.40
2018-08-09T01:26:47.692Z,23.40
2018-08-09T01:29:16.171Z,23.50
2018-08-09T01:31:44.664Z,23.50
2018-08-09T01:36:41.400Z,23.50
2018-08-09T01:39:11.987Z,23.30
2018-08-09T01:41:50.064Z,23.30
2018-08-09T01:44:18.481Z,23.20
2018-08-09T01:46:46.877Z,23.20
2018-08-09T01:49:15.299Z,23.20
2018-08-09T01:51:43.709Z,22.90
2018-08-09T01:54:12.136Z,22.90
2018-08-09T01:56:41.256Z,22.90
2018-08-09T01:59:09.776Z,23.00
2018-08-09T02:01:38.216Z,22.80
2018-08-09T02:04:07.760Z,22.80
2018-08-09T02:06:36.208Z,22.90
2018-08-09T02:09:09.251Z,22.90
2018-08-09T02:11:37.816Z,22.90
2018-08-09T02:14:07.204Z,22.80
2018-08-09T02:16:36.424Z,23.00
2018-08-09T02:19:04.845Z,23.00
2018-08-09T02:21:33.529Z,22.90
2018-08-09T02:24:02.556Z,22.90
2018-08-09T02:26:31.032Z,23.00
2018-08-09T02:28:59.493Z,23.00
2018-08-09T02:31:31.523Z,23.00
2018-08-09T02:33:59.977Z,23.00
2018-08-09T02:36:28.439Z,23.00
2018-08-09T02:38:57.013Z,22.90
2018-08-09T02:41:25.673Z,22.80
2018-08-09T02:43:54.066Z,22.80
2018-08-09T02:46:22.917Z,22.80
2018-08-09T02:48:51.913Z,22.80
2018-08-09T02:51:21.255Z,22.70
2018-08-09T02:53:50.066Z,22.70
2018-08-09T02:56:19.076Z,22.70
2018-08-09T02:58:47.633Z,22.70
2018-08-09T03:01:16.590Z,22.70
2018-08-09T03:03:45.126Z,22.70
2018-08-09T03:06:13.772Z,22.70
2018-08-09T03:08:42.429Z,22.70
2018-08-09T03:11:11.696Z,22.70
2018-08-09T03:13:40.270Z,22.60
2018-08-09T03:16:08.740Z,22.60
2018-08-09T03:18:37.257Z,22.60
2018-08-09T03:21:06.641Z,22.60
2018-08-09T03:23:35.048Z,22.60
2018-08-09T03:26:03.846Z,22.60
2018-08-09T03:28:33.039Z,22.60
2018-08-09T03:31:01.493Z,22.60
2018-08-09T03:33:30.264Z,22.40
2018-08-09T03:35:59.151Z,22.30
2018-08-09T03:38:27.751Z,22.30
2018-08-09T03:40:56.216Z,22.30
2018-08-09T03:43:24.713Z,22.20
2018-08-09T03:45:53.206Z,22.20
2018-08-09T03:48:22.016Z,22.10
2018-08-09T03:50:50.467Z,22.10
2018-08-09T03:53:19.145Z,22.10
2018-08-09T03:55:47.728Z,22.10
2018-08-09T03:58:16.222Z,22.10
2018-08-09T04:00:44.732Z,22.10
2018-08-09T04:03:13.285Z,22.10
2018-08-09T04:05:42.190Z,22.20
2018-08-09T04:08:10.756Z,22.10
2018-08-09T04:10:39.172Z,22.20
2018-08-09T04:13:08.319Z,22.30
2018-08-09T04:15:36.903Z,22.30
2018-08-09T04:18:05.625Z,22.20
2018-08-09T04:20:34.925Z,22.20
2018-08-09T04:23:03.339Z,22.10
2018-08-09T04:25:31.876Z,22.10
2018-08-09T04:28:00.349Z,22.10
2018-08-09T04:30:29.586Z,22.20
2018-08-09T04:32:58.117Z,22.30
2018-08-09T04:35:27.251Z,22.30
2018-08-09T04:37:55.755Z,22.40
2018-08-09T04:40:24.287Z,22.30
2018-08-09T04:42:52.759Z,22.30
2018-08-09T04:45:21.405Z,22.30
2018-08-09T04:47:49.940Z,22.00
2018-08-09T04:50:18.443Z,22.00
2018-08-09T04:52:47.012Z,22.00
2018-08-09T04:55:15.633Z,22.00
2018-08-09T04:57:44.872Z,22.10
2018-08-09T05:00:14.667Z,22.10
2018-08-09T05:02:43.308Z,22.30
2018-08-09T05:05:12.356Z,22.30
2018-08-09T05:07:41.682Z,22.40
2018-08-09T05:10:11.125Z,22.50
2018-08-09T05:12:41.442Z,22.60
2018-08-09T05:15:10.728Z,22.80
2018-08-09T05:17:39.314Z,22.70
2018-08-09T05:20:07.717Z,22.60
2018-08-09T05:22:36.541Z,22.60
2018-08-09T05:25:06.177Z,22.50
2018-08-09T05:27:34.615Z,22.50
2018-08-09T05:30:03.564Z,22.70
2018-08-09T05:32:32.246Z,22.70
2018-08-09T05:35:00.770Z,22.80
2018-08-09T05:37:29.292Z,22.90
2018-08-09T05:39:57.775Z,23.10
2018-08-09T05:42:26.288Z,23.10
2018-08-09T05:44:54.742Z,23.10
2018-08-09T05:47:23.713Z,22.90
2018-08-09T05:49:52.211Z,22.90
2018-08-09T05:52:20.715Z,22.90
2018-08-09T05:54:49.912Z,22.90
2018-08-09T05:57:19.069Z,22.80
2018-08-09T05:59:47.578Z,22.80
2018-08-09T06:02:16.248Z,22.80
2018-08-09T06:04:44.724Z,23.10
2018-08-09T06:07:13.698Z,23.00
2018-08-09T06:09:42.317Z,23.00
2018-08-09T06:12:11.369Z,23.10
2018-08-09T06:14:40.117Z,23.10
2018-08-09T06:17:09.501Z,23.50
2018-08-09T06:19:38.026Z,23.50
2018-08-09T06:22:08.049Z,23.60
2018-08-09T06:24:36.577Z,23.60
2018-08-09T06:27:05.349Z,23.90
2018-08-09T06:29:33.795Z,23.80
2018-08-09T06:32:02.381Z,23.80
2018-08-09T06:34:31.025Z,23.70
2018-08-09T06:36:59.644Z,23.50
2018-08-09T06:39:28.361Z,23.90
2018-08-09T06:41:56.911Z,23.90
2018-08-09T06:44:25.532Z,24.20
2018-08-09T06:46:54.058Z,24.20
2018-08-09T06:49:23.501Z,24.50
2018-08-09T06:51:52.002Z,24.50
2018-08-09T06:54:20.648Z,24.80
2018-08-09T06:56:49.238Z,24.90
2018-08-09T06:59:17.696Z,25.10
2018-08-09T07:01:46.330Z,25.10
2018-08-09T07:04:15.452Z,25.10
2018-08-09T07:06:44.060Z,24.80
2018-08-09T07:09:13.048Z,25.00
2018-08-09T07:11:41.680Z,25.00
2018-08-09T07:14:10.183Z,25.00
2018-08-09T07:16:38.692Z,25.10
2018-08-09T07:19:07.309Z,25.30
2018-08-09T07:21:36.349Z,25.30
2018-08-09T07:24:04.808Z,25.40
2018-08-09T07:26:34.151Z,25.40
2018-08-09T07:29:02.671Z,25.40
2018-08-09T07:31:31.128Z,25.20
2018-08-09T07:33:59.557Z,25.10
2018-08-09T07:36:28.312Z,25.20
2018-08-09T07:38:56.682Z,25.30
2018-08-09T07:41:25.167Z,25.40
2018-08-09T07:43:53.767Z,25.40
2018-08-09T07:46:23.472Z,26.00
2018-08-09T07:48:51.944Z,26.10
2018-08-09T07:51:20.377Z,26.40
2018-08-09T07:53:48.788Z,26.50
2018-08-09T07:56:17.396Z,26.40
2018-08-09T07:58:45.968Z,26.40
2018-08-09T08:01:14.441Z,26.20
2018-08-09T08:03:42.924Z,26.40
2018-08-09T08:06:11.581Z,26.70
2018-08-09T08:08:40.213Z,26.70
2018-08-09T08:11:09.102Z,27.40
2018-08-09T08:13:37.526Z,27.70
2018-08-09T08:16:06.177Z,27.70
2018-08-09T08:18:34.654Z,27.70
2018-08-09T08:21:03.089Z,27.70
2018-08-09T08:23:31.555Z,27.50
2018-08-09T08:25:59.992Z,27.50
2018-08-09T08:28:28.454Z,27.90
2018-08-09T08:30:56.868Z,28.00
2018-08-09T08:33:25.297Z,28.40
2018-08-09T08:35:54.519Z,28.90
2018-08-09T08:38:22.979Z,29.40
2018-08-09T08:40:51.466Z,29.50
2018-08-09T08:43:19.961Z,29.40
2018-08-09T08:45:49.307Z,29.50
2018-08-09T08:48:17.777Z,29.60
2018-08-09T08:50:46.212Z,29.60
2018-08-09T08:53:14.730Z,29.30
2018-08-09T08:55:43.901Z,29.30
2018-08-09T08:58:12.572Z,29.10
2018-08-09T09:00:40.977Z,29.40
2018-08-09T09:03:09.449Z,29.50
2018-08-09T09:05:37.959Z,29.50
2018-08-09T09:08:06.544Z,29.60
2018-08-09T09:10:35.026Z,29.70
2018-08-09T09:13:03.537Z,30.00
2018-08-09T09:15:31.995Z,30.00
2018-08-09T09:18:00.577Z,29.90
2018-08-09T09:20:29.020Z,29.90
2018-08-09T09:22:57.605Z,30.20
2018-08-09T09:25:26.084Z,30.90
2018-08-09T09:27:54.565Z,30.90
2018-08-09T09:30:23.373Z,31.10
2018-08-09T09:32:51.944Z,31.30
2018-08-09T09:35:20.353Z,31.20
2018-08-09T09:37:49.461Z,31.20
2018-08-09T09:40:18.092Z,31.10
2018-08-09T09:42:46.583Z,31.30
2018-08-09T09:45:15.097Z,31.50
2018-08-09T09:47:44.187Z,31.50
2018-08-09T09:50:13.276Z,31.60
2018-08-09T09:52:41.898Z,31.80
2018-08-09T09:55:10.495Z,32.10
2018-08-09T09:57:39.736Z,32.40
2018-08-09T10:00:14.974Z,32.20
2018-08-09T10:02:43.872Z,32.20
2018-08-09T10:05:12.377Z,32.60
2018-08-09T10:07:40.955Z,32.80
2018-08-09T10:10:10.141Z,33.40
2018-08-09T10:12:39.258Z,33.10
2018-08-09T10:15:07.945Z,33.00
2018-08-09T10:17:36.813Z,33.20
2018-08-09T10:20:05.890Z,33.50
2018-08-09T10:22:34.404Z,33.50
2018-08-09T10:25:02.889Z,33.50
2018-08-09T10:27:31.399Z,32.90
2018-08-09T10:29:59.932Z,32.80
2018-08-09T10:32:28.348Z,32.80
2018-08-09T10:34:56.852Z,33.00
2018-08-09T10:37:25.337Z,33.30
2018-08-09T10:39:53.796Z,33.30
2018-08-09T10:42:22.249Z,33.20
2018-08-09T10:44:50.648Z,32.70
2018-08-09T10:47:19.101Z,32.70
2018-08-09T10:54:44.780Z,32.80
2018-08-09T10:57:13.964Z,32.60
2018-08-09T10:59:42.504Z,32.50
2018-08-09T11:02:10.979Z,32.50
2018-08-09T11:04:39.804Z,32.40
2018-08-09T11:07:08.409Z,32.70
2018-08-09T11:09:37.142Z,32.80
2018-08-09T11:12:05.776Z,33.30
2018-08-09T11:14:34.388Z,33.70
2018-08-09T11:17:03.403Z,34.00
2018-08-09T11:19:32.392Z,34.00
2018-08-09T11:22:00.901Z,34.30
2018-08-09T11:24:29.899Z,34.50
2018-08-09T11:26:58.389Z,34.50
2018-08-09T11:29:27.459Z,34.50
2018-08-09T11:31:56.084Z,34.50
2018-08-09T11:34:24.788Z,34.50
2018-08-09T11:36:54.481Z,34.40
2018-08-09T11:39:23.052Z,34.40
2018-08-09T11:41:51.825Z,34.50
2018-08-09T11:44:20.341Z,34.20
2018-08-09T11:46:48.805Z,34.10
2018-08-09T11:49:17.285Z,34.00
2018-08-09T11:51:45.684Z,34.10
2018-08-09T11:54:14.141Z,34.10
2018-08-09T11:56:43.560Z,34.20
2018-08-09T11:59:12.682Z,34.30
2018-08-09T12:01:41.500Z,34.20
2018-08-09T12:04:09.999Z,34.00
2018-08-09T12:06:38.664Z,33.80
2018-08-09T12:09:09.166Z,33.70
2018-08-09T12:11:38.350Z,33.60
2018-08-09T12:14:07.577Z,33.70
2018-08-09T12:16:36.926Z,33.80
2018-08-09T12:19:06.120Z,34.00
2018-08-09T12:21:34.561Z,33.90
2018-08-09T12:24:03.089Z,33.80
2018-08-09T12:26:31.913Z,33.80
2018-08-09T12:29:00.780Z,33.80
2018-08-09T12:31:29.351Z,34.00
2018-08-09T12:33:57.973Z,33.80
2018-08-09T12:36:26.687Z,33.90
2018-08-09T12:38:55.853Z,34.00
2018-08-09T12:41:24.315Z,34.00
2018-08-09T12:43:52.829Z,34.10
2018-08-09T12:46:21.390Z,34.10
2018-08-09T12:48:50.619Z,33.90
2018-08-09T12:51:19.068Z,33.70
2018-08-09T12:53:47.576Z,33.70
2018-08-09T12:56:16.046Z,33.80
2018-08-09T12:58:45.202Z,33.90
2018-08-09T13:01:13.627Z,34.00
2018-08-09T13:03:43.123Z,34.00
2018-08-09T13:06:11.692Z,33.70
2018-08-09T13:08:40.153Z,33.70
2018-08-09T13:11:08.717Z,33.80
2018-08-09T13:13:37.386Z,33.70
2018-08-09T13:16:06.716Z,33.80
2018-08-09T13:18:35.407Z,34.00
2018-08-09T13:21:04.563Z,34.00
2018-08-09T13:23:33.044Z,34.20
2018-08-09T13:26:01.572Z,34.30
2018-08-09T13:28:30.018Z,34.30
2018-08-09T13:30:58.693Z,34.20
2018-08-09T13:33:27.631Z,34.10
2018-08-09T13:35:56.113Z,33.90
2018-08-09T13:38:24.593Z,33.60
2018-08-09T13:40:53.117Z,33.50
2018-08-09T13:43:22.199Z,33.50
2018-08-09T13:45:50.746Z,33.60
2018-08-09T13:48:19.281Z,33.70
2018-08-09T13:50:47.769Z,33.60
2018-08-09T13:53:16.835Z,33.50
2018-08-09T13:55:45.359Z,33.60
2018-08-09T13:58:13.868Z,33.80
2018-08-09T14:00:43.133Z,33.90
2018-08-09T14:03:16.045Z,34.00
2018-08-09T14:05:44.580Z,34.00
2018-08-09T14:08:13.215Z,33.80
2018-08-09T14:10:41.712Z,33.70
2018-08-09T14:13:10.162Z,33.80
2018-08-09T14:15:38.720Z,33.80
2018-08-09T14:18:07.273Z,33.70
2018-08-09T14:20:36.267Z,33.30
2018-08-09T14:23:06.476Z,33.30
2018-08-09T14:25:35.129Z,33.10
2018-08-09T14:28:03.682Z,33.00
2018-08-09T14:30:32.719Z,33.00
2018-08-09T14:33:02.125Z,32.90
2018-08-09T14:35:30.569Z,32.80
2018-08-09T14:37:59.033Z,32.80
2018-08-09T14:40:27.699Z,32.70
2018-08-09T14:42:56.661Z,32.60
2018-08-09T14:45:25.762Z,32.50
2018-08-09T14:47:54.312Z,32.50
2018-08-09T14:50:22.735Z,32.50
2018-08-09T14:52:51.365Z,32.50
2018-08-09T14:55:19.979Z,32.50
2018-08-09T14:57:52.984Z,32.50
2018-08-09T15:00:21.845Z,32.50
2018-08-09T15:02:50.305Z,32.40
2018-08-09T15:05:18.791Z,32.40
2018-08-09T15:07:48.656Z,32.40
2018-08-09T15:10:18.110Z,32.30
2018-08-09T15:12:46.782Z,32.20
2018-08-09T15:15:15.285Z,32.20
2018-08-09T15:17:44.328Z,32.20
2018-08-09T15:20:13.868Z,32.30
2018-08-09T15:22:46.853Z,32.30
2018-08-09T15:25:15.836Z,32.30
2018-08-09T15:27:44.360Z,32.10
2018-08-09T15:30:16.483Z,31.20
2018-08-09T15:32:45.036Z,28.30
2018-08-09T15:37:42.186Z,27.30
2018-08-09T15:40:11.947Z,26.40
2018-08-09T15:42:40.519Z,26.30
2018-08-09T15:45:11.315Z,26.30
2018-08-09T15:47:40.421Z,26.30
2018-08-09T15:50:12.140Z,26.30
2018-08-09T15:52:41.262Z,26.30
2018-08-09T15:55:10.114Z,26.10
2018-08-09T15:57:38.626Z,26.10
2018-08-09T16:00:09.812Z,26.20
2018-08-09T16:02:38.397Z,26.30
2018-08-09T16:05:07.354Z,26.30
2018-08-09T16:07:35.858Z,26.50
2018-08-09T16:10:07.460Z,26.50
2018-08-09T16:12:36.241Z,25.90
2018-08-09T16:15:05.905Z,25.50
2018-08-09T16:17:34.947Z,24.60
2018-08-09T16:20:03.485Z,24.20
2018-08-09T16:22:31.985Z,24.00
2018-08-09T16:25:00.964Z,23.90
2018-08-09T16:27:29.435Z,23.50
2018-08-09T16:29:58.130Z,23.40
2018-08-09T16:32:26.667Z,23.40
2018-08-09T16:34:55.977Z,23.40
2018-08-09T16:37:24.531Z,23.30
2018-08-09T16:39:53.028Z,23.40
2018-08-09T16:42:21.510Z,23.40
2018-08-09T16:44:49.985Z,23.50
2018-08-09T16:49:46.962Z,23.40
2018-08-09T16:52:15.486Z,23.40
2018-08-09T16:54:43.989Z,23.50
2018-08-09T16:57:12.592Z,23.60
2018-08-09T17:02:13.781Z,23.60
2018-08-09T17:04:42.394Z,23.50
2018-08-09T17:07:10.975Z,23.40
2018-08-09T17:09:39.537Z,23.40
2018-08-09T17:12:08.181Z,23.50
2018-08-09T17:14:36.703Z,23.30
2018-08-09T17:17:05.287Z,23.30
2018-08-09T17:19:33.902Z,23.30
2018-08-09T17:22:02.518Z,23.20
2018-08-09T17:24:31.038Z,23.20
2018-08-09T17:26:59.936Z,23.40
2018-08-09T17:29:28.585Z,23.50
2018-08-09T17:31:57.930Z,23.60
2018-08-09T17:34:26.552Z,23.60
2018-08-09T17:36:55.021Z,23.60
2018-08-09T17:39:23.638Z,23.60
2018-08-09T17:41:52.212Z,23.60
2018-08-09T17:44:20.725Z,23.60
2018-08-09T17:46:49.273Z,23.60
2018-08-09T17:49:18.146Z,23.50
2018-08-09T17:51:47.006Z,23.40
2018-08-09T17:54:15.536Z,23.50
2018-08-09T17:56:44.092Z,23.70
2018-08-09T17:59:12.702Z,23.70
2018-08-09T18:01:41.370Z,23.70
2018-08-09T18:04:09.990Z,23.70
2018-08-09T18:06:39.385Z,23.70
2018-08-09T18:09:09.892Z,23.60
2018-08-09T18:11:38.409Z,23.60
2018-08-09T18:14:07.288Z,23.60
2018-08-09T18:16:35.919Z,23.50
2018-08-09T18:19:04.857Z,23.60
2018-08-09T18:21:33.405Z,23.60
2018-08-09T18:24:01.939Z,23.60
2018-08-09T18:26:30.491Z,23.60
2018-08-09T18:28:58.984Z,23.50
2018-08-09T18:31:27.575Z,23.60
2018-08-09T18:33:56.076Z,23.60
2018-08-09T18:36:24.695Z,23.60
2018-08-09T18:38:53.349Z,23.90
2018-08-09T18:41:21.910Z,23.90
2018-08-09T18:43:55.101Z,23.80
2018-08-09T18:46:24.297Z,23.80
2018-08-09T18:48:52.904Z,23.80
2018-08-09T18:51:21.647Z,23.90
2018-08-09T18:53:50.294Z,23.90
2018-08-09T18:56:19.933Z,24.00
2018-08-09T18:58:49.186Z,24.00
2018-08-09T19:01:18.520Z,23.90
2018-08-09T19:03:47.952Z,23.90
2018-08-09T19:06:16.513Z,23.80
2018-08-09T19:08:45.093Z,23.80
2018-08-09T19:11:13.768Z,24.00
2018-08-09T19:13:42.256Z,24.00
2018-08-09T19:16:10.829Z,23.90
2018-08-09T19:18:40.162Z,24.00
2018-08-09T19:21:08.982Z,24.00
2018-08-09T19:23:37.500Z,23.90
2018-08-09T19:26:06.072Z,23.80
2018-08-09T19:28:35.289Z,23.70
2018-08-09T19:31:03.866Z,23.90
2018-08-09T19:33:32.894Z,23.90
2018-08-09T19:36:01.928Z,23.90
2018-08-09T19:38:30.750Z,24.00
2018-08-09T19:40:59.282Z,24.00
2018-08-09T19:43:27.769Z,24.00
2018-08-09T19:45:56.543Z,23.90
2018-08-09T19:48:25.084Z,24.00
2018-08-09T19:50:53.508Z,24.10
2018-08-09T19:53:21.981Z,24.10
2018-08-09T19:55:50.583Z,24.10
2018-08-09T19:58:19.047Z,24.10
2018-08-09T20:00:47.569Z,24.10
2018-08-09T20:03:16.125Z,24.10
2018-08-09T20:05:44.752Z,24.00
2018-08-09T20:08:13.649Z,24.10
2018-08-09T20:10:42.227Z,24.10
2018-08-09T20:13:11.041Z,24.10
2018-08-09T20:18:07.946Z,23.80
2018-08-09T20:20:36.428Z,23.80
2018-08-09T20:25:33.940Z,23.50
2018-08-09T20:28:03.024Z,23.60
2018-08-09T20:30:31.653Z,23.50
2018-08-09T20:33:01.236Z,23.50
2018-08-09T20:35:29.725Z,23.20
2018-08-09T20:37:58.338Z,23.20
2018-08-09T20:40:26.817Z,23.20
2018-08-09T20:45:24.771Z,23.10
2018-08-09T20:47:53.333Z,23.20
2018-08-09T20:50:26.446Z,23.10
2018-08-09T20:52:54.968Z,23.10
2018-08-09T20:55:23.506Z,23.00
2018-08-09T20:57:52.779Z,23.00
2018-08-09T21:00:24.155Z,23.00
2018-08-09T21:02:54.684Z,23.10
2018-08-09T21:05:30.753Z,23.10
2018-08-09T21:07:59.393Z,23.00
2018-08-09T21:10:28.497Z,23.00
2018-08-09T21:12:57.232Z,22.90
2018-08-09T21:15:25.876Z,22.90
2018-08-09T21:17:54.349Z,22.90
2018-08-09T21:20:22.885Z,22.90
2018-08-09T21:22:51.855Z,22.70
2018-08-09T21:25:20.717Z,22.80
2018-08-09T21:27:50.152Z,22.80
2018-08-09T21:30:21.797Z,22.90
2018-08-09T21:32:50.693Z,22.90
2018-08-09T21:35:19.204Z,23.00
2018-08-09T21:37:47.700Z,23.00
2018-08-09T21:40:16.445Z,23.00
2018-08-09T21:42:45.039Z,23.10
2018-08-09T21:45:17.293Z,23.10
2018-08-09T21:47:46.461Z,23.20
2018-08-09T21:50:16.780Z,23.10
2018-08-09T21:55:14.897Z,23.20
2018-08-09T21:57:45.018Z,23.10
2018-08-09T22:00:34.642Z,23.10
2018-08-09T22:03:03.173Z,23.20
2018-08-09T22:05:38.140Z,23.10
2018-08-09T22:08:12.085Z,23.10
2018-08-09T22:10:45.726Z,23.20
2018-08-09T22:14:23.349Z,23.10
2018-08-09T22:16:57.228Z,23.10
2018-08-09T22:19:30.904Z,23.10
2018-08-09T22:22:04.800Z,23.10
2018-08-09T22:24:33.235Z,23.10
2018-08-09T22:27:01.831Z,22.80
2018-08-09T22:29:30.973Z,22.80
2018-08-09T22:31:59.611Z,22.80
2018-08-09T22:34:28.598Z,22.80
2018-08-09T22:39:25.436Z,22.50
2018-08-09T22:41:53.857Z,22.60
2018-08-09T22:44:22.350Z,22.70
2018-08-09T22:46:50.960Z,22.60
2018-08-09T22:49:19.484Z,22.60
2018-08-09T22:51:47.995Z,22.60
2018-08-09T22:54:17.316Z,22.50
2018-08-09T22:56:45.939Z,22.40
2018-08-09T22:59:14.397Z,22.40
2018-08-09T23:01:42.856Z,22.30
2018-08-09T23:04:11.437Z,22.30
2018-08-09T23:06:40.102Z,22.30
2018-08-09T23:09:10.401Z,22.30
2018-08-09T23:11:38.886Z,22.30
2018-08-09T23:14:08.008Z,22.20
2018-08-09T23:16:36.583Z,22.20
2018-08-09T23:19:05.652Z,22.20
2018-08-09T23:21:34.162Z,22.20
2018-08-09T23:24:02.576Z,22.10
2018-08-09T23:26:31.082Z,22.10
2018-08-09T23:29:00.020Z,22.10
2018-08-09T23:31:28.423Z,22.10
2018-08-09T23:33:56.893Z,21.80
2018-08-09T23:36:25.334Z,21.80
2018-08-09T23:38:54.017Z,21.80
2018-08-09T23:41:22.696Z,21.80
2018-08-09T23:43:51.174Z,21.80
2018-08-09T23:46:19.644Z,21.90
2018-08-09T23:48:48.068Z,21.90
2018-08-09T23:51:16.633Z,21.90
2018-08-09T23:53:45.037Z,21.90
2018-08-09T23:56:13.521Z,22.00
2018-08-09T23:58:41.935Z,21.90
